createdAt,value
2023-01-13T00:00:13.981Z,13.35
2023-01-13T00:05:19.244Z,9.40
2023-01-13T00:10:22.707Z,10.53
2023-01-13T00:15:26.049Z,11.60
2023-01-13T00:20:30.872Z,9.00
2023-01-13T00:25:34.411Z,10.13
2023-01-13T00:30:38.549Z,7.40
2023-01-13T00:35:43.445Z,7.85
2023-01-13T00:40:46.772Z,6.33
2023-01-13T00:45:51.601Z,7.17
2023-01-13T00:51:00.515Z,9.30
2023-01-13T00:56:04.999Z,8.70
2023-01-13T01:01:10.556Z,8.55
2023-01-13T01:06:18.202Z,8.70
2023-01-13T01:11:24.365Z,8.87
2023-01-13T01:16:29.914Z,12.87
2023-01-13T01:21:35.903Z,12.50
2023-01-13T01:26:39.517Z,8.90
2023-01-13T01:31:42.926Z,10.60
2023-01-13T01:36:47.723Z,6.17
2023-01-13T01:42:08.326Z,7.93
2023-01-13T01:47:14.353Z,7.20
2023-01-13T01:52:23.537Z,16.00
2023-01-13T01:57:31.696Z,6.80
2023-01-13T02:02:35.412Z,7.00
2023-01-13T02:07:43.107Z,8.50
2023-01-13T02:12:48.800Z,4.87
2023-01-13T02:18:09.438Z,7.87
2023-01-13T02:24:00.739Z,8.80
2023-01-13T02:29:32.367Z,8.27
2023-01-13T02:34:41.726Z,6.67
2023-01-13T02:39:51.450Z,7.57
2023-01-13T02:45:00.773Z,4.97
2023-01-13T02:50:08.474Z,8.00
2023-01-13T02:55:16.634Z,9.03
2023-01-13T03:00:22.202Z,7.20
2023-01-13T03:05:27.089Z,11.23
2023-01-13T03:10:57.067Z,15.80
2023-01-13T03:16:10.139Z,11.80
2023-01-13T03:21:21.319Z,10.33
2023-01-13T03:26:33.264Z,9.73
2023-01-13T03:31:44.412Z,8.23
2023-01-13T03:36:53.196Z,10.23
2023-01-13T03:42:01.289Z,7.83
2023-01-13T03:47:12.601Z,9.03
2023-01-13T03:52:22.428Z,7.47
2023-01-13T03:57:31.125Z,6.57
2023-01-13T04:02:45.129Z,8.10
2023-01-13T04:07:56.454Z,7.17
2023-01-13T04:13:04.494Z,12.93
2023-01-13T04:18:16.168Z,8.30
2023-01-13T04:23:22.744Z,6.97
2023-01-13T04:28:26.954Z,7.13
2023-01-13T04:33:30.462Z,7.53
2023-01-13T04:38:35.213Z,7.67
2023-01-13T04:48:41.722Z,6.70
2023-01-13T04:53:46.970Z,5.53
2023-01-13T04:58:50.435Z,5.63
2023-01-13T05:03:53.854Z,9.43
2023-01-13T05:08:58.783Z,8.90
2023-01-13T05:14:19.196Z,8.97
2023-01-13T05:19:22.550Z,7.53
2023-01-13T05:24:47.016Z,7.03
2023-01-13T05:29:50.338Z,7.45
2023-01-13T05:34:53.821Z,9.27
2023-01-13T05:40:15.856Z,8.63
2023-01-13T05:45:19.450Z,10.17
2023-01-13T05:50:22.736Z,6.93
2023-01-13T05:55:27.548Z,6.90
2023-01-13T06:00:31.092Z,9.37
2023-01-13T06:05:34.889Z,10.23
2023-01-13T06:10:39.657Z,8.77
2023-01-13T06:20:47.166Z,7.93
2023-01-13T06:26:01.698Z,7.40
2023-01-13T06:31:08.867Z,12.68
2023-01-13T06:36:15.945Z,11.63
2023-01-13T06:41:43.116Z,8.00
2023-01-13T06:46:46.697Z,8.50
2023-01-13T06:51:50.244Z,9.93
2023-01-13T06:56:54.989Z,10.07
2023-01-13T07:01:58.426Z,9.70
2023-01-13T07:07:01.753Z,9.97
2023-01-13T07:12:07.005Z,8.53
2023-01-13T07:17:10.530Z,9.90
2023-01-13T07:22:15.311Z,9.17
2023-01-13T07:32:23.368Z,5.75
2023-01-13T07:37:26.808Z,11.07
2023-01-13T07:42:48.965Z,10.73
2023-01-13T07:47:55.348Z,8.70
2023-01-13T07:52:59.663Z,8.10
2023-01-13T07:58:04.388Z,9.40
2023-01-13T08:08:11.029Z,8.47
2023-01-13T08:13:21.300Z,6.90
2023-01-13T08:18:24.797Z,11.53
2023-01-13T08:23:28.437Z,11.93
2023-01-13T08:28:33.732Z,9.60
2023-01-13T08:33:38.023Z,9.67
2023-01-13T08:38:42.274Z,8.73
2023-01-13T08:43:47.381Z,11.77
2023-01-13T08:48:50.836Z,8.47
2023-01-13T08:53:54.322Z,13.80
2023-01-13T08:59:01.121Z,13.17
2023-01-13T09:04:04.553Z,12.83
2023-01-13T09:09:08.227Z,12.30
2023-01-13T09:14:14.421Z,11.57
2023-01-13T09:19:17.894Z,7.67
2023-01-13T09:24:22.090Z,12.37
2023-01-13T09:29:27.026Z,11.75
2023-01-13T09:39:51.174Z,10.70
2023-01-13T09:45:01.846Z,10.47
2023-01-13T09:50:19.799Z,12.27
2023-01-13T09:55:29.859Z,11.27
2023-01-13T10:00:40.696Z,13.57
2023-01-13T10:05:50.375Z,11.87
2023-01-13T10:10:57.060Z,14.13
2023-01-13T10:16:19.105Z,12.53
2023-01-13T10:21:44.516Z,12.17
2023-01-13T10:26:57.454Z,16.17
2023-01-13T10:32:02.468Z,12.80
2023-01-13T10:37:07.622Z,11.00
2023-01-13T10:42:15.555Z,11.57
2023-01-13T10:47:24.068Z,14.17
2023-01-13T10:52:29.364Z,14.53
2023-01-13T10:57:37.987Z,12.77
2023-01-13T11:02:43.160Z,11.60
2023-01-13T11:07:52.374Z,11.00
2023-01-13T11:13:03.997Z,9.10
2023-01-13T11:18:18.180Z,9.83
2023-01-13T11:23:27.644Z,13.38
2023-01-13T11:28:51.972Z,14.00
2023-01-13T11:34:01.183Z,11.57
2023-01-13T11:39:18.144Z,15.00
2023-01-13T11:44:26.502Z,13.80
2023-01-13T11:49:34.170Z,13.90
2023-01-13T11:55:11.442Z,13.43
2023-01-13T12:00:37.863Z,12.40
2023-01-13T12:11:04.350Z,11.57
2023-01-13T12:16:16.604Z,14.40
2023-01-13T12:21:24.212Z,12.88
2023-01-13T12:26:31.278Z,10.50
2023-01-13T12:31:37.364Z,12.80
2023-01-13T12:36:58.638Z,11.77
2023-01-13T12:42:28.585Z,13.07
2023-01-13T12:47:36.668Z,12.63
2023-01-13T12:52:46.724Z,11.43
2023-01-13T12:58:15.510Z,11.60
2023-01-13T13:03:33.591Z,14.40
2023-01-13T13:09:03.736Z,15.80
2023-01-13T13:14:11.890Z,14.27
2023-01-13T13:19:44.525Z,13.10
2023-01-13T13:25:22.345Z,13.63
2023-01-13T13:30:31.096Z,14.03
2023-01-13T13:35:52.433Z,12.17
2023-01-13T13:41:12.974Z,13.53
2023-01-13T13:46:48.396Z,13.00
2023-01-13T13:52:00.881Z,15.27
2023-01-13T13:57:04.501Z,13.03
2023-01-13T14:02:21.132Z,15.97
2023-01-13T14:07:24.609Z,14.37
2023-01-13T14:12:30.563Z,16.70
2023-01-13T14:17:36.048Z,13.83
2023-01-13T14:22:39.555Z,18.27
2023-01-13T14:27:45.021Z,14.63
2023-01-13T14:32:50.593Z,14.10
2023-01-13T14:38:04.338Z,17.73
2023-01-13T14:43:13.269Z,17.63
2023-01-13T14:48:18.036Z,17.73
2023-01-13T14:53:34.790Z,18.03
2023-01-13T14:58:38.358Z,15.87
2023-01-13T15:03:43.469Z,18.23
2023-01-13T15:08:46.861Z,19.63
2023-01-13T15:13:58.522Z,16.87
2023-01-13T15:19:03.791Z,18.17
2023-01-13T15:24:07.970Z,17.87
2023-01-13T15:29:15.063Z,16.50
2023-01-13T15:34:19.931Z,13.10
2023-01-13T15:39:23.286Z,20.03
2023-01-13T15:44:43.904Z,16.57
2023-01-13T15:49:49.336Z,21.13
2023-01-13T15:54:53.637Z,18.23
2023-01-13T15:59:58.919Z,19.45
2023-01-13T16:05:04.200Z,17.93
2023-01-13T16:10:13.780Z,17.60
2023-01-13T16:15:18.485Z,20.03
2023-01-13T16:20:23.827Z,19.00
2023-01-13T16:25:28.489Z,21.17
2023-01-13T16:30:33.148Z,16.50
2023-01-13T16:36:09.446Z,15.88
2023-01-13T16:41:01.252Z,18.33
2023-01-13T16:46:17.870Z,22.40
2023-01-13T16:51:23.905Z,18.27
2023-01-13T16:56:29.626Z,19.57
2023-01-13T17:01:35.347Z,19.17
2023-01-13T17:06:44.079Z,17.40
2023-01-13T17:11:47.453Z,15.10
2023-01-13T17:16:51.845Z,16.80
2023-01-13T17:21:58.510Z,19.80
2023-01-13T17:27:01.947Z,16.43
2023-01-13T17:32:05.671Z,16.57
2023-01-13T17:37:13.837Z,20.40
2023-01-13T17:42:17.517Z,19.63
2023-01-13T17:47:20.991Z,19.10
2023-01-13T17:52:25.792Z,20.23
2023-01-13T18:02:33.569Z,19.73
2023-01-13T18:12:41.368Z,20.70
2023-01-13T18:17:46.305Z,21.20
2023-01-13T18:23:09.749Z,23.30
2023-01-13T18:28:13.299Z,23.87
2023-01-13T18:33:16.781Z,20.40
2023-01-13T18:38:21.792Z,22.70
2023-01-13T18:43:25.393Z,22.97
2023-01-13T18:48:28.877Z,23.17
2023-01-13T18:53:34.300Z,29.30
2023-01-13T18:58:37.696Z,26.67
2023-01-13T19:03:41.205Z,21.17
2023-01-13T19:08:46.114Z,25.73
2023-01-13T19:13:49.748Z,23.30
2023-01-13T19:18:53.140Z,23.07
2023-01-13T19:23:58.223Z,21.53
2023-01-13T19:29:01.794Z,23.83
2023-01-13T19:34:05.229Z,24.90
2023-01-13T19:39:10.882Z,19.97
2023-01-13T19:44:31.672Z,26.87
2023-01-13T19:49:35.239Z,28.80
2023-01-13T19:54:40.188Z,22.67
2023-01-13T19:59:43.801Z,22.00
2023-01-13T20:04:48.964Z,27.93
2023-01-13T20:09:56.402Z,20.73
2023-01-13T20:14:59.968Z,23.43
2023-01-13T20:20:03.678Z,20.37
2023-01-13T20:25:09.916Z,26.20
2023-01-13T20:30:14.797Z,25.20
2023-01-13T20:35:18.473Z,27.43
2023-01-13T20:40:23.421Z,23.23
2023-01-13T20:45:26.824Z,26.10
2023-01-13T20:50:30.141Z,24.23
2023-01-13T20:55:35.040Z,24.93
2023-01-13T21:00:38.391Z,22.73
2023-01-13T21:05:41.918Z,25.43
2023-01-13T21:10:46.892Z,23.50
2023-01-13T21:21:11.837Z,23.03
2023-01-13T21:26:17.222Z,23.10
2023-01-13T21:31:20.597Z,23.80
2023-01-13T21:36:25.082Z,22.17
2023-01-13T21:41:47.232Z,26.73
2023-01-13T21:47:07.926Z,24.07
2023-01-13T21:52:12.341Z,21.73
2023-01-13T21:57:17.192Z,25.55
2023-01-13T22:07:36.560Z,23.80
2023-01-13T22:12:41.668Z,25.63
2023-01-13T22:17:45.785Z,21.20
2023-01-13T22:22:49.589Z,20.30
2023-01-13T22:28:03.674Z,21.10
2023-01-13T22:33:07.021Z,22.60
2023-01-13T22:38:12.240Z,24.13
2023-01-13T22:43:17.208Z,22.47
2023-01-13T22:53:24.101Z,24.57
2023-01-13T22:58:29.360Z,23.33
2023-01-13T23:03:32.846Z,21.73
2023-01-13T23:08:36.957Z,24.37
2023-01-13T23:13:43.421Z,27.38
2023-01-13T23:18:48.317Z,20.30
2023-01-13T23:23:52.026Z,20.10
2023-01-13T23:28:59.836Z,20.35
2023-01-13T23:34:03.492Z,20.20
2023-01-13T23:39:07.133Z,18.65
2023-01-13T23:44:11.831Z,21.02
2023-01-13T23:49:15.510Z,24.08
2023-01-13T23:54:19.537Z,21.73
2023-01-13T23:59:24.514Z,18.60
